sensor_id;sensor_type;location;lat;lon;timestamp;P1;durP1;ratioP1;P2;durP2;ratioP2
73898;SDS011;62234;50.892;12.724;2023-06-14T00:00:50;1.58;;;1.30;;
73898;SDS011;62234;50.892;12.724;2023-06-14T00:03:17;1.63;;;1.13;;
73898;SDS011;62234;50.892;12.724;2023-06-14T00:05:47;2.20;;;1.15;;
73898;SDS011;62234;50.892;12.724;2023-06-14T00:08:13;1.42;;;1.33;;
73898;SDS011;62234;50.892;12.724;2023-06-14T00:10:39;1.40;;;1.17;;
73898;SDS011;62234;50.892;12.724;2023-06-14T00:13:07;1.88;;;1.10;;
73898;SDS011;62234;50.892;12.724;2023-06-14T00:15:33;1.45;;;1.35;;
73898;SDS011;62234;50.892;12.724;2023-06-14T00:17:59;1.10;;;1.00;;
73898;SDS011;62234;50.892;12.724;2023-06-14T00:20:26;1.40;;;1.02;;
73898;SDS011;62234;50.892;12.724;2023-06-14T00:22:52;2.17;;;1.17;;
73898;SDS011;62234;50.892;12.724;2023-06-14T00:25:18;1.25;;;1.15;;
73898;SDS011;62234;50.892;12.724;2023-06-14T00:27:44;1.15;;;1.10;;
73898;SDS011;62234;50.892;12.724;2023-06-14T00:30:11;1.08;;;1.08;;
73898;SDS011;62234;50.892;12.724;2023-06-14T00:32:37;1.25;;;1.13;;
73898;SDS011;62234;50.892;12.724;2023-06-14T00:35:03;1.30;;;1.20;;
73898;SDS011;62234;50.892;12.724;2023-06-14T00:37:29;1.05;;;1.02;;
73898;SDS011;62234;50.892;12.724;2023-06-14T00:39:54;2.25;;;1.25;;
73898;SDS011;62234;50.892;12.724;2023-06-14T00:42:27;0.80;;;0.80;;
73898;SDS011;62234;50.892;12.724;2023-06-14T00:44:53;1.40;;;1.10;;
73898;SDS011;62234;50.892;12.724;2023-06-14T00:47:19;0.98;;;0.98;;
73898;SDS011;62234;50.892;12.724;2023-06-14T00:49:46;1.90;;;1.00;;
73898;SDS011;62234;50.892;12.724;2023-06-14T00:52:13;1.17;;;1.10;;
73898;SDS011;62234;50.892;12.724;2023-06-14T00:54:40;1.13;;;1.08;;
73898;SDS011;62234;50.892;12.724;2023-06-14T00:57:06;1.33;;;1.23;;
73898;SDS011;62234;50.892;12.724;2023-06-14T00:59:33;1.38;;;1.17;;
73898;SDS011;62234;50.892;12.724;2023-06-14T01:01:59;1.40;;;1.30;;
73898;SDS011;62234;50.892;12.724;2023-06-14T01:04:25;1.75;;;1.20;;
73898;SDS011;62234;50.892;12.724;2023-06-14T01:06:57;1.20;;;1.10;;
73898;SDS011;62234;50.892;12.724;2023-06-14T01:09:43;1.02;;;0.90;;
73898;SDS011;62234;50.892;12.724;2023-06-14T01:12:14;1.73;;;1.20;;
73898;SDS011;62234;50.892;12.724;2023-06-14T01:14:41;1.42;;;1.30;;
73898;SDS011;62234;50.892;12.724;2023-06-14T01:17:07;1.17;;;1.08;;
73898;SDS011;62234;50.892;12.724;2023-06-14T01:19:41;1.27;;;1.17;;
73898;SDS011;62234;50.892;12.724;2023-06-14T01:22:07;0.93;;;0.77;;
73898;SDS011;62234;50.892;12.724;2023-06-14T01:24:34;1.20;;;1.10;;
73898;SDS011;62234;50.892;12.724;2023-06-14T01:27:00;1.10;;;0.88;;
73898;SDS011;62234;50.892;12.724;2023-06-14T01:29:26;0.70;;;0.70;;
73898;SDS011;62234;50.892;12.724;2023-06-14T01:31:53;1.50;;;1.02;;
73898;SDS011;62234;50.892;12.724;2023-06-14T01:34:19;1.20;;;1.10;;
73898;SDS011;62234;50.892;12.724;2023-06-14T01:36:45;1.63;;;0.85;;
73898;SDS011;62234;50.892;12.724;2023-06-14T01:39:12;1.27;;;0.80;;
73898;SDS011;62234;50.892;12.724;2023-06-14T01:41:39;2.33;;;1.20;;
73898;SDS011;62234;50.892;12.724;2023-06-14T01:44:05;1.35;;;1.00;;
73898;SDS011;62234;50.892;12.724;2023-06-14T01:46:32;0.73;;;0.73;;
73898;SDS011;62234;50.892;12.724;2023-06-14T01:48:58;1.00;;;1.00;;
73898;SDS011;62234;50.892;12.724;2023-06-14T01:51:24;0.90;;;0.85;;
73898;SDS011;62234;50.892;12.724;2023-06-14T01:53:50;1.23;;;1.00;;
73898;SDS011;62234;50.892;12.724;2023-06-14T01:56:16;1.20;;;1.10;;
73898;SDS011;62234;50.892;12.724;2023-06-14T01:58:42;0.93;;;0.80;;
73898;SDS011;62234;50.892;12.724;2023-06-14T02:01:08;1.88;;;1.20;;
73898;SDS011;62234;50.892;12.724;2023-06-14T02:03:34;1.10;;;1.00;;
73898;SDS011;62234;50.892;12.724;2023-06-14T02:06:03;0.90;;;0.90;;
73898;SDS011;62234;50.892;12.724;2023-06-14T02:08:28;0.73;;;0.73;;
73898;SDS011;62234;50.892;12.724;2023-06-14T02:10:55;1.10;;;1.10;;
73898;SDS011;62234;50.892;12.724;2023-06-14T02:13:21;1.35;;;0.85;;
73898;SDS011;62234;50.892;12.724;2023-06-14T02:15:46;1.13;;;0.95;;
73898;SDS011;62234;50.892;12.724;2023-06-14T02:18:16;1.10;;;1.00;;
73898;SDS011;62234;50.892;12.724;2023-06-14T02:20:41;0.90;;;0.90;;
73898;SDS011;62234;50.892;12.724;2023-06-14T02:23:07;0.85;;;0.85;;
73898;SDS011;62234;50.892;12.724;2023-06-14T02:25:33;0.75;;;0.75;;
73898;SDS011;62234;50.892;12.724;2023-06-14T02:28:00;0.90;;;0.90;;
73898;SDS011;62234;50.892;12.724;2023-06-14T02:30:25;0.88;;;0.88;;
73898;SDS011;62234;50.892;12.724;2023-06-14T02:32:51;1.23;;;0.85;;
73898;SDS011;62234;50.892;12.724;2023-06-14T02:35:18;1.20;;;1.10;;
73898;SDS011;62234;50.892;12.724;2023-06-14T02:37:45;1.10;;;0.98;;
73898;SDS011;62234;50.892;12.724;2023-06-14T02:40:11;1.10;;;1.00;;
73898;SDS011;62234;50.892;12.724;2023-06-14T02:42:37;1.05;;;1.00;;
73898;SDS011;62234;50.892;12.724;2023-06-14T02:45:03;0.80;;;0.73;;
73898;SDS011;62234;50.892;12.724;2023-06-14T02:47:29;0.77;;;0.77;;
73898;SDS011;62234;50.892;12.724;2023-06-14T02:49:55;1.00;;;0.90;;
73898;SDS011;62234;50.892;12.724;2023-06-14T02:52:21;1.15;;;0.95;;
73898;SDS011;62234;50.892;12.724;2023-06-14T02:54:47;0.98;;;0.98;;
73898;SDS011;62234;50.892;12.724;2023-06-14T02:57:13;1.00;;;1.00;;
73898;SDS011;62234;50.892;12.724;2023-06-14T02:59:39;0.93;;;0.93;;
73898;SDS011;62234;50.892;12.724;2023-06-14T03:02:05;1.77;;;1.13;;
73898;SDS011;62234;50.892;12.724;2023-06-14T03:04:31;0.70;;;0.70;;
73898;SDS011;62234;50.892;12.724;2023-06-14T03:07:02;0.80;;;0.80;;
73898;SDS011;62234;50.892;12.724;2023-06-14T03:09:33;1.33;;;1.00;;
73898;SDS011;62234;50.892;12.724;2023-06-14T03:11:59;0.82;;;0.82;;
73898;SDS011;62234;50.892;12.724;2023-06-14T03:14:25;0.85;;;0.85;;
73898;SDS011;62234;50.892;12.724;2023-06-14T03:16:51;1.10;;;0.80;;
73898;SDS011;62234;50.892;12.724;2023-06-14T03:19:21;0.88;;;0.80;;
73898;SDS011;62234;50.892;12.724;2023-06-14T03:21:47;1.00;;;1.00;;
73898;SDS011;62234;50.892;12.724;2023-06-14T03:24:13;1.05;;;0.98;;
73898;SDS011;62234;50.892;12.724;2023-06-14T03:26:41;1.10;;;1.00;;
73898;SDS011;62234;50.892;12.724;2023-06-14T03:29:07;1.65;;;1.00;;
73898;SDS011;62234;50.892;12.724;2023-06-14T03:31:33;1.17;;;0.90;;
73898;SDS011;62234;50.892;12.724;2023-06-14T03:33:59;1.15;;;0.98;;
73898;SDS011;62234;50.892;12.724;2023-06-14T03:36:25;1.17;;;1.08;;
73898;SDS011;62234;50.892;12.724;2023-06-14T03:38:52;0.80;;;0.80;;
73898;SDS011;62234;50.892;12.724;2023-06-14T03:41:18;1.20;;;0.98;;
73898;SDS011;62234;50.892;12.724;2023-06-14T03:43:44;1.05;;;0.93;;
73898;SDS011;62234;50.892;12.724;2023-06-14T03:46:10;1.88;;;0.98;;
73898;SDS011;62234;50.892;12.724;2023-06-14T03:48:36;0.80;;;0.80;;
73898;SDS011;62234;50.892;12.724;2023-06-14T03:51:03;0.88;;;0.73;;
73898;SDS011;62234;50.892;12.724;2023-06-14T03:53:29;0.80;;;0.80;;
73898;SDS011;62234;50.892;12.724;2023-06-14T03:55:55;0.85;;;0.82;;
73898;SDS011;62234;50.892;12.724;2023-06-14T03:58:22;0.93;;;0.93;;
73898;SDS011;62234;50.892;12.724;2023-06-14T04:00:48;0.80;;;0.77;;
73898;SDS011;62234;50.892;12.724;2023-06-14T04:03:14;1.23;;;0.82;;
73898;SDS011;62234;50.892;12.724;2023-06-14T04:05:44;1.40;;;1.10;;
73898;SDS011;62234;50.892;12.724;2023-06-14T04:08:14;0.90;;;0.90;;
73898;SDS011;62234;50.892;12.724;2023-06-14T04:10:40;1.23;;;1.13;;
73898;SDS011;62234;50.892;12.724;2023-06-14T04:13:06;1.77;;;1.10;;
73898;SDS011;62234;50.892;12.724;2023-06-14T04:15:32;1.20;;;0.95;;
73898;SDS011;62234;50.892;12.724;2023-06-14T04:17:59;3.00;;;1.23;;
73898;SDS011;62234;50.892;12.724;2023-06-14T04:20:25;9.45;;;1.48;;
73898;SDS011;62234;50.892;12.724;2023-06-14T04:22:51;14.32;;;1.77;;
73898;SDS011;62234;50.892;12.724;2023-06-14T04:25:22;21.50;;;2.15;;
73898;SDS011;62234;50.892;12.724;2023-06-14T04:27:50;24.83;;;2.20;;
73898;SDS011;62234;50.892;12.724;2023-06-14T04:30:17;26.33;;;2.42;;
73898;SDS011;62234;50.892;12.724;2023-06-14T04:32:43;19.15;;;2.42;;
73898;SDS011;62234;50.892;12.724;2023-06-14T04:35:10;12.23;;;1.65;;
73898;SDS011;62234;50.892;12.724;2023-06-14T04:37:36;16.85;;;2.05;;
73898;SDS011;62234;50.892;12.724;2023-06-14T04:40:05;13.98;;;1.73;;
73898;SDS011;62234;50.892;12.724;2023-06-14T04:42:31;10.65;;;2.00;;
73898;SDS011;62234;50.892;12.724;2023-06-14T04:44:57;13.50;;;2.30;;
73898;SDS011;62234;50.892;12.724;2023-06-14T04:47:23;11.95;;;2.03;;
73898;SDS011;62234;50.892;12.724;2023-06-14T04:49:54;13.02;;;1.45;;
73898;SDS011;62234;50.892;12.724;2023-06-14T04:52:20;11.40;;;2.00;;
73898;SDS011;62234;50.892;12.724;2023-06-14T04:54:46;5.43;;;1.35;;
73898;SDS011;62234;50.892;12.724;2023-06-14T04:57:13;4.35;;;1.27;;
73898;SDS011;62234;50.892;12.724;2023-06-14T04:59:42;4.13;;;1.25;;
73898;SDS011;62234;50.892;12.724;2023-06-14T05:02:09;11.38;;;1.70;;
73898;SDS011;62234;50.892;12.724;2023-06-14T05:04:35;5.28;;;1.60;;
73898;SDS011;62234;50.892;12.724;2023-06-14T05:07:04;12.38;;;1.48;;
73898;SDS011;62234;50.892;12.724;2023-06-14T05:09:31;7.20;;;1.42;;
73898;SDS011;62234;50.892;12.724;2023-06-14T05:11:57;8.48;;;1.77;;
73898;SDS011;62234;50.892;12.724;2023-06-14T05:14:25;5.68;;;1.38;;
73898;SDS011;62234;50.892;12.724;2023-06-14T05:16:51;5.53;;;1.20;;
73898;SDS011;62234;50.892;12.724;2023-06-14T05:19:18;6.55;;;1.55;;
73898;SDS011;62234;50.892;12.724;2023-06-14T05:21:45;4.53;;;1.42;;
73898;SDS011;62234;50.892;12.724;2023-06-14T05:24:12;7.97;;;1.30;;
73898;SDS011;62234;50.892;12.724;2023-06-14T05:26:38;5.15;;;1.40;;
73898;SDS011;62234;50.892;12.724;2023-06-14T05:29:04;7.25;;;1.83;;
73898;SDS011;62234;50.892;12.724;2023-06-14T05:31:30;5.32;;;1.58;;
73898;SDS011;62234;50.892;12.724;2023-06-14T05:33:57;2.67;;;1.10;;
73898;SDS011;62234;50.892;12.724;2023-06-14T05:36:23;6.50;;;1.10;;
73898;SDS011;62234;50.892;12.724;2023-06-14T05:38:49;3.88;;;1.00;;
73898;SDS011;62234;50.892;12.724;2023-06-14T05:41:16;5.15;;;1.58;;
73898;SDS011;62234;50.892;12.724;2023-06-14T05:43:42;1.95;;;0.95;;
73898;SDS011;62234;50.892;12.724;2023-06-14T05:46:08;4.32;;;1.15;;
73898;SDS011;62234;50.892;12.724;2023-06-14T05:48:34;6.25;;;1.35;;
73898;SDS011;62234;50.892;12.724;2023-06-14T05:51:00;3.13;;;1.10;;
73898;SDS011;62234;50.892;12.724;2023-06-14T05:53:26;6.00;;;1.40;;
73898;SDS011;62234;50.892;12.724;2023-06-14T05:55:51;4.20;;;1.27;;
73898;SDS011;62234;50.892;12.724;2023-06-14T05:58:19;4.18;;;0.88;;
73898;SDS011;62234;50.892;12.724;2023-06-14T06:00:45;2.33;;;0.88;;
73898;SDS011;62234;50.892;12.724;2023-06-14T06:03:11;1.33;;;1.08;;
73898;SDS011;62234;50.892;12.724;2023-06-14T06:05:38;5.28;;;1.15;;
73898;SDS011;62234;50.892;12.724;2023-06-14T06:08:03;3.45;;;1.20;;
73898;SDS011;62234;50.892;12.724;2023-06-14T06:10:30;7.38;;;1.30;;
73898;SDS011;62234;50.892;12.724;2023-06-14T06:12:56;3.92;;;1.20;;
73898;SDS011;62234;50.892;12.724;2023-06-14T06:15:21;2.85;;;1.17;;
73898;SDS011;62234;50.892;12.724;2023-06-14T06:17:47;4.22;;;1.10;;
73898;SDS011;62234;50.892;12.724;2023-06-14T06:20:13;5.43;;;1.17;;
73898;SDS011;62234;50.892;12.724;2023-06-14T06:22:39;3.63;;;1.00;;
73898;SDS011;62234;50.892;12.724;2023-06-14T06:25:05;1.55;;;0.98;;
73898;SDS011;62234;50.892;12.724;2023-06-14T06:27:32;4.15;;;1.30;;
73898;SDS011;62234;50.892;12.724;2023-06-14T06:29:58;3.05;;;0.98;;
73898;SDS011;62234;50.892;12.724;2023-06-14T06:32:24;2.05;;;0.93;;
73898;SDS011;62234;50.892;12.724;2023-06-14T06:34:50;1.05;;;0.70;;
73898;SDS011;62234;50.892;12.724;2023-06-14T06:37:16;3.83;;;0.88;;
73898;SDS011;62234;50.892;12.724;2023-06-14T06:39:42;1.95;;;1.17;;
73898;SDS011;62234;50.892;12.724;2023-06-14T06:42:08;2.20;;;1.00;;
73898;SDS011;62234;50.892;12.724;2023-06-14T06:44:35;2.42;;;1.20;;
73898;SDS011;62234;50.892;12.724;2023-06-14T06:47:01;4.40;;;1.20;;
73898;SDS011;62234;50.892;12.724;2023-06-14T06:49:27;2.85;;;1.30;;
73898;SDS011;62234;50.892;12.724;2023-06-14T06:51:59;2.55;;;0.80;;
73898;SDS011;62234;50.892;12.724;2023-06-14T06:54:26;1.58;;;1.10;;
73898;SDS011;62234;50.892;12.724;2023-06-14T06:56:52;3.53;;;1.00;;
73898;SDS011;62234;50.892;12.724;2023-06-14T06:59:18;2.80;;;0.90;;
73898;SDS011;62234;50.892;12.724;2023-06-14T07:01:44;2.17;;;0.90;;
73898;SDS011;62234;50.892;12.724;2023-06-14T07:04:10;2.50;;;0.98;;
73898;SDS011;62234;50.892;12.724;2023-06-14T07:06:36;1.77;;;0.80;;
73898;SDS011;62234;50.892;12.724;2023-06-14T07:09:02;2.28;;;1.02;;
73898;SDS011;62234;50.892;12.724;2023-06-14T07:11:30;3.20;;;1.02;;
73898;SDS011;62234;50.892;12.724;2023-06-14T07:13:56;3.88;;;1.13;;
73898;SDS011;62234;50.892;12.724;2023-06-14T07:16:22;2.35;;;0.75;;
73898;SDS011;62234;50.892;12.724;2023-06-14T07:18:48;2.00;;;0.82;;
73898;SDS011;62234;50.892;12.724;2023-06-14T07:21:14;3.85;;;0.82;;
73898;SDS011;62234;50.892;12.724;2023-06-14T07:23:40;0.95;;;0.90;;
73898;SDS011;62234;50.892;12.724;2023-06-14T07:26:06;4.68;;;1.00;;
73898;SDS011;62234;50.892;12.724;2023-06-14T07:28:32;1.08;;;0.80;;
73898;SDS011;62234;50.892;12.724;2023-06-14T07:30:57;1.15;;;0.80;;
73898;SDS011;62234;50.892;12.724;2023-06-14T07:33:23;1.88;;;1.02;;
73898;SDS011;62234;50.892;12.724;2023-06-14T07:35:49;1.77;;;0.82;;
73898;SDS011;62234;50.892;12.724;2023-06-14T07:38:17;2.00;;;0.90;;
73898;SDS011;62234;50.892;12.724;2023-06-14T07:40:43;2.83;;;0.80;;
73898;SDS011;62234;50.892;12.724;2023-06-14T07:43:09;0.82;;;0.73;;
73898;SDS011;62234;50.892;12.724;2023-06-14T07:45:35;1.05;;;0.65;;
73898;SDS011;62234;50.892;12.724;2023-06-14T07:48:01;0.90;;;0.90;;
73898;SDS011;62234;50.892;12.724;2023-06-14T07:50:26;1.98;;;1.10;;
73898;SDS011;62234;50.892;12.724;2023-06-14T07:52:53;1.35;;;1.02;;
73898;SDS011;62234;50.892;12.724;2023-06-14T07:55:19;0.70;;;0.60;;
73898;SDS011;62234;50.892;12.724;2023-06-14T07:57:45;1.42;;;0.70;;
73898;SDS011;62234;50.892;12.724;2023-06-14T08:00:11;1.63;;;0.82;;
73898;SDS011;62234;50.892;12.724;2023-06-14T08:02:40;0.80;;;0.80;;
73898;SDS011;62234;50.892;12.724;2023-06-14T08:05:06;2.47;;;0.88;;
73898;SDS011;62234;50.892;12.724;2023-06-14T08:07:33;2.50;;;0.80;;
73898;SDS011;62234;50.892;12.724;2023-06-14T08:09:59;0.82;;;0.80;;
73898;SDS011;62234;50.892;12.724;2023-06-14T08:12:25;0.85;;;0.85;;
73898;SDS011;62234;50.892;12.724;2023-06-14T08:14:51;1.20;;;0.70;;
73898;SDS011;62234;50.892;12.724;2023-06-14T08:17:17;0.80;;;0.80;;
73898;SDS011;62234;50.892;12.724;2023-06-14T08:19:43;0.73;;;0.60;;
73898;SDS011;62234;50.892;12.724;2023-06-14T08:22:09;0.80;;;0.63;;
73898;SDS011;62234;50.892;12.724;2023-06-14T08:24:38;1.02;;;0.75;;
73898;SDS011;62234;50.892;12.724;2023-06-14T08:27:07;1.88;;;0.93;;
73898;SDS011;62234;50.892;12.724;2023-06-14T08:29:33;1.27;;;0.68;;
73898;SDS011;62234;50.892;12.724;2023-06-14T08:31:59;0.98;;;0.80;;
73898;SDS011;62234;50.892;12.724;2023-06-14T08:34:25;0.80;;;0.80;;
73898;SDS011;62234;50.892;12.724;2023-06-14T08:36:51;0.60;;;0.60;;
73898;SDS011;62234;50.892;12.724;2023-06-14T08:39:17;1.40;;;0.60;;
73898;SDS011;62234;50.892;12.724;2023-06-14T08:41:46;1.17;;;0.90;;
73898;SDS011;62234;50.892;12.724;2023-06-14T08:44:16;0.95;;;0.80;;
73898;SDS011;62234;50.892;12.724;2023-06-14T08:46:42;0.82;;;0.70;;
73898;SDS011;62234;50.892;12.724;2023-06-14T08:49:09;1.08;;;0.90;;
73898;SDS011;62234;50.892;12.724;2023-06-14T08:51:36;0.63;;;0.63;;
73898;SDS011;62234;50.892;12.724;2023-06-14T08:54:02;2.05;;;0.80;;
73898;SDS011;62234;50.892;12.724;2023-06-14T08:56:29;2.00;;;0.98;;
73898;SDS011;62234;50.892;12.724;2023-06-14T08:58:58;1.40;;;0.75;;
73898;SDS011;62234;50.892;12.724;2023-06-14T09:01:28;1.38;;;0.82;;
73898;SDS011;62234;50.892;12.724;2023-06-14T09:03:56;0.60;;;0.60;;
73898;SDS011;62234;50.892;12.724;2023-06-14T09:06:22;1.75;;;0.70;;
73898;SDS011;62234;50.892;12.724;2023-06-14T09:08:49;1.63;;;0.77;;
73898;SDS011;62234;50.892;12.724;2023-06-14T09:11:16;1.50;;;0.82;;
73898;SDS011;62234;50.892;12.724;2023-06-14T09:13:44;1.77;;;0.80;;
73898;SDS011;62234;50.892;12.724;2023-06-14T09:16:10;1.25;;;0.50;;
73898;SDS011;62234;50.892;12.724;2023-06-14T09:18:39;0.80;;;0.68;;
73898;SDS011;62234;50.892;12.724;2023-06-14T09:21:09;0.88;;;0.80;;
73898;SDS011;62234;50.892;12.724;2023-06-14T09:23:36;1.38;;;0.73;;
73898;SDS011;62234;50.892;12.724;2023-06-14T09:26:06;0.60;;;0.60;;
73898;SDS011;62234;50.892;12.724;2023-06-14T09:28:32;0.80;;;0.50;;
73898;SDS011;62234;50.892;12.724;2023-06-14T09:30:57;2.78;;;0.70;;
73898;SDS011;62234;50.892;12.724;2023-06-14T09:33:24;0.70;;;0.60;;
73898;SDS011;62234;50.892;12.724;2023-06-14T09:35:51;1.08;;;0.65;;
73898;SDS011;62234;50.892;12.724;2023-06-14T09:38:17;0.60;;;0.60;;
73898;SDS011;62234;50.892;12.724;2023-06-14T09:40:43;2.30;;;0.70;;
73898;SDS011;62234;50.892;12.724;2023-06-14T09:43:09;0.98;;;0.55;;
73898;SDS011;62234;50.892;12.724;2023-06-14T09:45:36;0.55;;;0.55;;
73898;SDS011;62234;50.892;12.724;2023-06-14T09:48:04;1.05;;;0.70;;
73898;SDS011;62234;50.892;12.724;2023-06-14T09:50:30;3.00;;;0.52;;
73898;SDS011;62234;50.892;12.724;2023-06-14T09:52:57;0.65;;;0.65;;
73898;SDS011;62234;50.892;12.724;2023-06-14T09:55:24;0.80;;;0.70;;
73898;SDS011;62234;50.892;12.724;2023-06-14T09:57:51;0.88;;;0.40;;
73898;SDS011;62234;50.892;12.724;2023-06-14T10:00:17;0.57;;;0.57;;
73898;SDS011;62234;50.892;12.724;2023-06-14T10:02:43;2.05;;;0.60;;
73898;SDS011;62234;50.892;12.724;2023-06-14T10:05:14;1.08;;;0.77;;
73898;SDS011;62234;50.892;12.724;2023-06-14T10:07:42;0.70;;;0.70;;
73898;SDS011;62234;50.892;12.724;2023-06-14T10:10:10;0.80;;;0.60;;
73898;SDS011;62234;50.892;12.724;2023-06-14T10:12:36;0.40;;;0.38;;
73898;SDS011;62234;50.892;12.724;2023-06-14T10:15:02;1.60;;;0.60;;
73898;SDS011;62234;50.892;12.724;2023-06-14T10:17:33;0.73;;;0.65;;
73898;SDS011;62234;50.892;12.724;2023-06-14T10:22:47;0.70;;;0.60;;
73898;SDS011;62234;50.892;12.724;2023-06-14T10:25:27;0.90;;;0.47;;
73898;SDS011;62234;50.892;12.724;2023-06-14T10:28:01;1.50;;;0.70;;
73898;SDS011;62234;50.892;12.724;2023-06-14T10:30:27;0.57;;;0.52;;
73898;SDS011;62234;50.892;12.724;2023-06-14T10:33:06;0.70;;;0.57;;
73898;SDS011;62234;50.892;12.724;2023-06-14T10:35:33;0.75;;;0.45;;
73898;SDS011;62234;50.892;12.724;2023-06-14T10:38:09;0.75;;;0.57;;
73898;SDS011;62234;50.892;12.724;2023-06-14T10:40:35;0.60;;;0.60;;
73898;SDS011;62234;50.892;12.724;2023-06-14T10:43:06;0.50;;;0.50;;
73898;SDS011;62234;50.892;12.724;2023-06-14T10:46:11;0.77;;;0.77;;
73898;SDS011;62234;50.892;12.724;2023-06-14T10:48:40;1.08;;;0.40;;
73898;SDS011;62234;50.892;12.724;2023-06-14T10:53:39;1.35;;;0.63;;
73898;SDS011;62234;50.892;12.724;2023-06-14T10:56:06;0.90;;;0.63;;
73898;SDS011;62234;50.892;12.724;2023-06-14T10:58:32;1.02;;;0.70;;
73898;SDS011;62234;50.892;12.724;2023-06-14T11:00:58;1.10;;;0.47;;
73898;SDS011;62234;50.892;12.724;2023-06-14T11:03:42;0.82;;;0.55;;
73898;SDS011;62234;50.892;12.724;2023-06-14T11:06:13;0.95;;;0.55;;
73898;SDS011;62234;50.892;12.724;2023-06-14T11:11:24;1.02;;;0.50;;
73898;SDS011;62234;50.892;12.724;2023-06-14T11:13:55;0.73;;;0.43;;
73898;SDS011;62234;50.892;12.724;2023-06-14T11:16:21;0.73;;;0.70;;
73898;SDS011;62234;50.892;12.724;2023-06-14T11:18:52;0.40;;;0.32;;
73898;SDS011;62234;50.892;12.724;2023-06-14T11:21:18;0.55;;;0.55;;
73898;SDS011;62234;50.892;12.724;2023-06-14T11:23:48;0.85;;;0.75;;
73898;SDS011;62234;50.892;12.724;2023-06-14T11:28:40;1.30;;;0.60;;
73898;SDS011;62234;50.892;12.724;2023-06-14T11:31:07;0.73;;;0.50;;
73898;SDS011;62234;50.892;12.724;2023-06-14T11:33:33;0.80;;;0.80;;
73898;SDS011;62234;50.892;12.724;2023-06-14T11:36:01;0.60;;;0.40;;
73898;SDS011;62234;50.892;12.724;2023-06-14T11:38:28;0.70;;;0.70;;
73898;SDS011;62234;50.892;12.724;2023-06-14T11:40:58;0.95;;;0.50;;
73898;SDS011;62234;50.892;12.724;2023-06-14T11:43:24;0.55;;;0.55;;
73898;SDS011;62234;50.892;12.724;2023-06-14T11:45:51;0.60;;;0.60;;
73898;SDS011;62234;50.892;12.724;2023-06-14T11:48:18;0.55;;;0.55;;
73898;SDS011;62234;50.892;12.724;2023-06-14T11:50:44;0.80;;;0.45;;
73898;SDS011;62234;50.892;12.724;2023-06-14T11:53:15;0.80;;;0.50;;
73898;SDS011;62234;50.892;12.724;2023-06-14T11:55:41;0.50;;;0.50;;
73898;SDS011;62234;50.892;12.724;2023-06-14T11:58:10;1.20;;;0.85;;
73898;SDS011;62234;50.892;12.724;2023-06-14T12:00:36;0.60;;;0.60;;
73898;SDS011;62234;50.892;12.724;2023-06-14T12:03:02;0.50;;;0.50;;
73898;SDS011;62234;50.892;12.724;2023-06-14T12:05:28;0.50;;;0.50;;
73898;SDS011;62234;50.892;12.724;2023-06-14T12:07:58;0.43;;;0.43;;
73898;SDS011;62234;50.892;12.724;2023-06-14T12:10:24;1.35;;;1.25;;
73898;SDS011;62234;50.892;12.724;2023-06-14T12:12:50;0.68;;;0.50;;
73898;SDS011;62234;50.892;12.724;2023-06-14T12:15:16;0.75;;;0.57;;
73898;SDS011;62234;50.892;12.724;2023-06-14T12:17:43;0.45;;;0.45;;
73898;SDS011;62234;50.892;12.724;2023-06-14T12:20:09;0.57;;;0.57;;
73898;SDS011;62234;50.892;12.724;2023-06-14T12:22:39;0.35;;;0.35;;
73898;SDS011;62234;50.892;12.724;2023-06-14T12:25:05;0.70;;;0.57;;
73898;SDS011;62234;50.892;12.724;2023-06-14T12:27:31;0.63;;;0.63;;
73898;SDS011;62234;50.892;12.724;2023-06-14T12:29:58;0.98;;;0.70;;
73898;SDS011;62234;50.892;12.724;2023-06-14T12:32:24;1.20;;;0.63;;
73898;SDS011;62234;50.892;12.724;2023-06-14T12:34:50;0.45;;;0.45;;
73898;SDS011;62234;50.892;12.724;2023-06-14T12:37:16;0.43;;;0.43;;
73898;SDS011;62234;50.892;12.724;2023-06-14T12:39:42;0.68;;;0.65;;
73898;SDS011;62234;50.892;12.724;2023-06-14T12:42:08;0.70;;;0.50;;
73898;SDS011;62234;50.892;12.724;2023-06-14T12:44:34;1.10;;;0.65;;
73898;SDS011;62234;50.892;12.724;2023-06-14T12:47:05;0.60;;;0.60;;
73898;SDS011;62234;50.892;12.724;2023-06-14T12:49:31;0.52;;;0.50;;
73898;SDS011;62234;50.892;12.724;2023-06-14T12:51:57;0.50;;;0.50;;
73898;SDS011;62234;50.892;12.724;2023-06-14T12:54:23;0.57;;;0.57;;
73898;SDS011;62234;50.892;12.724;2023-06-14T12:56:50;0.70;;;0.60;;
73898;SDS011;62234;50.892;12.724;2023-06-14T12:59:16;0.60;;;0.50;;
73898;SDS011;62234;50.892;12.724;2023-06-14T13:01:43;1.95;;;0.50;;
73898;SDS011;62234;50.892;12.724;2023-06-14T13:04:09;0.40;;;0.40;;
73898;SDS011;62234;50.892;12.724;2023-06-14T13:06:35;0.50;;;0.50;;
73898;SDS011;62234;50.892;12.724;2023-06-14T13:09:01;0.63;;;0.50;;
73898;SDS011;62234;50.892;12.724;2023-06-14T13:11:28;0.60;;;0.60;;
73898;SDS011;62234;50.892;12.724;2023-06-14T13:13:55;0.50;;;0.50;;
73898;SDS011;62234;50.892;12.724;2023-06-14T13:16:21;0.40;;;0.40;;
73898;SDS011;62234;50.892;12.724;2023-06-14T13:18:47;0.38;;;0.35;;
73898;SDS011;62234;50.892;12.724;2023-06-14T13:21:13;0.77;;;0.52;;
73898;SDS011;62234;50.892;12.724;2023-06-14T13:23:39;0.43;;;0.43;;
73898;SDS011;62234;50.892;12.724;2023-06-14T13:26:05;0.40;;;0.40;;
73898;SDS011;62234;50.892;12.724;2023-06-14T13:28:30;0.40;;;0.40;;
73898;SDS011;62234;50.892;12.724;2023-06-14T13:30:57;1.45;;;0.90;;
73898;SDS011;62234;50.892;12.724;2023-06-14T13:33:23;0.60;;;0.60;;
73898;SDS011;62234;50.892;12.724;2023-06-14T13:35:49;0.50;;;0.45;;
73898;SDS011;62234;50.892;12.724;2023-06-14T13:38:17;0.57;;;0.50;;
73898;SDS011;62234;50.892;12.724;2023-06-14T13:40:43;0.80;;;0.80;;
73898;SDS011;62234;50.892;12.724;2023-06-14T13:43:09;0.40;;;0.40;;
73898;SDS011;62234;50.892;12.724;2023-06-14T13:45:36;0.73;;;0.73;;
73898;SDS011;62234;50.892;12.724;2023-06-14T13:48:01;0.57;;;0.40;;
73898;SDS011;62234;50.892;12.724;2023-06-14T13:50:27;1.73;;;0.73;;
73898;SDS011;62234;50.892;12.724;2023-06-14T13:52:53;0.75;;;0.50;;
73898;SDS011;62234;50.892;12.724;2023-06-14T13:55:19;0.50;;;0.50;;
73898;SDS011;62234;50.892;12.724;2023-06-14T13:57:45;0.45;;;0.40;;
73898;SDS011;62234;50.892;12.724;2023-06-14T14:00:11;0.60;;;0.40;;
73898;SDS011;62234;50.892;12.724;2023-06-14T14:02:37;0.47;;;0.47;;
73898;SDS011;62234;50.892;12.724;2023-06-14T14:05:04;0.30;;;0.30;;
73898;SDS011;62234;50.892;12.724;2023-06-14T14:07:31;0.45;;;0.30;;
73898;SDS011;62234;50.892;12.724;2023-06-14T14:09:57;0.95;;;0.68;;
73898;SDS011;62234;50.892;12.724;2023-06-14T14:12:23;0.70;;;0.35;;
73898;SDS011;62234;50.892;12.724;2023-06-14T14:14:50;0.50;;;0.50;;
73898;SDS011;62234;50.892;12.724;2023-06-14T14:17:16;0.60;;;0.60;;
73898;SDS011;62234;50.892;12.724;2023-06-14T14:19:42;0.28;;;0.28;;
73898;SDS011;62234;50.892;12.724;2023-06-14T14:22:08;0.43;;;0.43;;
73898;SDS011;62234;50.892;12.724;2023-06-14T14:24:34;0.60;;;0.50;;
73898;SDS011;62234;50.892;12.724;2023-06-14T14:27:01;0.75;;;0.52;;
73898;SDS011;62234;50.892;12.724;2023-06-14T14:29:27;0.40;;;0.40;;
73898;SDS011;62234;50.892;12.724;2023-06-14T14:31:56;0.40;;;0.40;;
73898;SDS011;62234;50.892;12.724;2023-06-14T14:34:23;0.82;;;0.50;;
73898;SDS011;62234;50.892;12.724;2023-06-14T14:36:49;0.22;;;0.22;;
73898;SDS011;62234;50.892;12.724;2023-06-14T14:39:15;0.43;;;0.43;;
73898;SDS011;62234;50.892;12.724;2023-06-14T14:41:41;0.47;;;0.47;;